Gabes, Gabes Matmata International Airport (DTTG)

NameGabes Matmata International Airport
CityGabes
CountryTunisia
ICAODTTG
IATAGAE
Altitude8 m
CoordinatesGoogle Map
Live Air TrafficLiveATC.net
METARDTTG 072300Z 09006KT 5000 FEW020 SCT030 15/15 Q1020 NOSIG
2019-12-07 23:00:00 Wind: East (90°) 3.09 m/s - Visibility: 5000 m - Temperature: 15 °C - Dew point: 15 °C - Humidity: 100% - Pressure: 1020 hPa

Sorry, no flights used the airport in this database.